createdAt,value
2022-08-11T00:02:06.180Z,17.49
2022-08-11T00:05:36.175Z,17.46
2022-08-11T00:09:03.198Z,17.41
2022-08-11T00:12:30.181Z,17.39
2022-08-11T00:16:00.305Z,17.29
2022-08-11T00:20:12.373Z,17.23
2022-08-11T00:23:06.231Z,17.20
2022-08-11T00:26:31.184Z,17.20
2022-08-11T00:29:52.191Z,17.21
2022-08-11T00:33:13.154Z,17.20
2022-08-11T00:36:39.184Z,17.13
2022-08-11T00:40:05.282Z,17.06
2022-08-11T00:44:01.182Z,17.09
2022-08-11T00:47:48.230Z,17.10
2022-08-11T00:52:02.161Z,17.06
2022-08-11T00:55:47.053Z,16.91
2022-08-11T00:59:34.818Z,16.85
2022-08-11T01:03:04.255Z,16.79
2022-08-11T01:06:56.177Z,16.72
2022-08-11T01:10:29.248Z,16.68
2022-08-11T01:14:18.234Z,16.65
2022-08-11T01:18:39.586Z,16.71
2022-08-11T01:22:22.217Z,16.73
2022-08-11T01:26:02.288Z,16.65
2022-08-11T01:30:00.279Z,16.58
2022-08-11T01:33:36.215Z,16.55
2022-08-11T01:37:09.208Z,16.55
2022-08-11T01:41:04.293Z,16.56
2022-08-11T01:44:45.263Z,16.54
2022-08-11T01:48:30.392Z,16.58
2022-08-11T01:52:34.610Z,16.59
2022-08-11T01:56:26.325Z,16.61
2022-08-11T01:59:59.256Z,16.56
2022-08-11T02:03:52.336Z,16.50
2022-08-11T02:07:54.245Z,16.57
2022-08-11T02:11:42.225Z,16.60
2022-08-11T02:15:33.257Z,16.63
2022-08-11T02:19:21.281Z,16.65
2022-08-11T02:23:58.715Z,16.67
2022-08-11T02:27:28.250Z,16.75
2022-08-11T02:32:04.864Z,16.79
2022-08-11T02:34:59.281Z,16.90
2022-08-11T02:38:32.257Z,16.98
2022-08-11T02:42:31.687Z,17.01
2022-08-11T02:46:05.245Z,17.00
2022-08-11T02:50:06.899Z,17.06
2022-08-11T02:53:44.304Z,17.10
2022-08-11T02:57:26.284Z,17.13
2022-08-11T03:01:14.379Z,17.20
2022-08-11T03:04:58.325Z,17.31
2022-08-11T03:08:36.270Z,17.35
2022-08-11T03:12:44.262Z,17.39
2022-08-11T03:16:41.226Z,17.42
2022-08-11T03:20:14.329Z,17.44
2022-08-11T03:23:41.242Z,17.47
2022-08-11T03:27:22.223Z,17.52
2022-08-11T03:31:04.351Z,17.59
2022-08-11T03:34:36.311Z,17.66
2022-08-11T03:38:16.316Z,17.68
2022-08-11T03:42:04.055Z,17.77
2022-08-11T03:45:51.255Z,17.88
2022-08-11T03:49:55.278Z,17.95
2022-08-11T03:53:42.268Z,18.02
2022-08-11T03:57:43.291Z,18.09
2022-08-11T04:01:42.355Z,18.15
2022-08-11T04:05:12.279Z,18.22
2022-08-11T04:08:59.322Z,18.23
2022-08-11T04:12:37.283Z,18.26
2022-08-11T04:16:47.572Z,18.37
2022-08-11T04:37:53.518Z,18.85
2022-08-11T04:42:13.329Z,18.91
2022-08-11T04:46:03.246Z,19.03
2022-08-11T04:50:16.331Z,19.14
2022-08-11T04:54:13.259Z,19.19
2022-08-11T04:58:20.360Z,19.22
2022-08-11T05:02:04.365Z,19.34
2022-08-11T05:06:14.278Z,19.45
2022-08-11T05:09:50.292Z,19.56
2022-08-11T05:13:33.320Z,19.62
2022-08-11T05:17:29.260Z,19.74
2022-08-11T05:21:19.346Z,19.79
2022-08-11T05:25:15.360Z,19.87
2022-08-11T05:29:25.340Z,20.00
2022-08-11T05:33:09.337Z,20.18
2022-08-11T05:37:11.602Z,20.34
2022-08-11T05:40:51.214Z,20.42
2022-08-11T05:44:34.373Z,20.53
2022-08-11T05:48:14.403Z,20.63
2022-08-11T05:51:57.103Z,20.73
2022-08-11T05:56:01.631Z,20.82
2022-08-11T05:59:18.335Z,20.87
2022-08-11T06:02:40.341Z,20.93
2022-08-11T06:06:01.269Z,21.04
2022-08-11T06:09:23.275Z,21.13
2022-08-11T06:12:48.284Z,21.17
2022-08-11T06:16:11.290Z,21.33
2022-08-11T06:19:36.283Z,21.45
2022-08-11T06:23:01.284Z,21.50
2022-08-11T06:26:24.370Z,21.56
2022-08-11T06:29:55.248Z,21.70
2022-08-11T06:33:18.464Z,21.84
2022-08-11T06:36:52.347Z,21.93
2022-08-11T06:40:34.405Z,21.95
2022-08-11T06:44:26.389Z,22.04
2022-08-11T06:47:48.331Z,22.05
2022-08-11T06:51:23.291Z,22.14
2022-08-11T06:54:40.363Z,22.19
2022-08-11T06:58:19.384Z,22.35
2022-08-11T07:02:00.490Z,22.48
2022-08-11T07:05:34.432Z,22.53
2022-08-11T07:09:33.435Z,22.62
2022-08-11T07:13:44.434Z,22.66
2022-08-11T07:17:01.335Z,22.71
2022-08-11T07:20:42.425Z,22.79
2022-08-11T07:24:34.349Z,22.90
2022-08-11T07:28:34.363Z,23.07
2022-08-11T07:32:10.537Z,23.23
2022-08-11T07:35:38.459Z,23.33
2022-08-11T07:39:03.382Z,23.67
2022-08-11T07:42:29.460Z,23.84
2022-08-11T07:46:15.358Z,24.11
2022-08-11T07:49:55.377Z,24.42
2022-08-11T07:53:18.517Z,24.51
2022-08-11T07:57:07.390Z,24.64
2022-08-11T08:00:40.408Z,24.73
2022-08-11T08:04:19.361Z,24.80
2022-08-11T08:07:58.409Z,24.79
2022-08-11T08:11:39.381Z,24.78
2022-08-11T08:15:18.322Z,24.95
2022-08-11T08:18:39.601Z,25.08
2022-08-11T08:22:06.054Z,25.23
2022-08-11T08:25:49.344Z,25.28
2022-08-11T08:29:33.357Z,25.33
2022-08-11T08:32:48.462Z,25.33
2022-08-11T08:36:18.351Z,25.14
2022-08-11T08:39:44.430Z,24.99
2022-08-11T08:43:11.447Z,24.74
2022-08-11T08:46:39.318Z,24.64
2022-08-11T08:50:04.413Z,24.66
2022-08-11T08:53:26.378Z,24.57
2022-08-11T08:56:49.370Z,24.55
2022-08-11T09:00:13.046Z,24.59
2022-08-11T09:04:02.806Z,24.59
2022-08-11T09:07:23.340Z,24.44
2022-08-11T09:10:44.369Z,24.40
2022-08-11T09:14:10.340Z,24.43
2022-08-11T09:17:34.380Z,24.52
2022-08-11T09:20:56.382Z,24.64
2022-08-11T09:24:40.357Z,24.63
2022-08-11T09:28:03.344Z,24.70
2022-08-11T09:31:25.351Z,24.97
2022-08-11T09:34:50.373Z,25.22
2022-08-11T09:38:30.337Z,25.43
2022-08-11T09:42:00.969Z,25.63
2022-08-11T09:45:25.352Z,25.66
2022-08-11T09:48:53.347Z,25.71
2022-08-11T09:52:16.424Z,26.02
2022-08-11T09:55:38.400Z,26.30
2022-08-11T09:58:59.397Z,26.49
2022-08-11T10:02:23.403Z,26.56
2022-08-11T10:06:07.332Z,26.90
2022-08-11T10:09:33.500Z,27.35
2022-08-11T10:13:00.362Z,27.58
2022-08-11T10:16:16.889Z,27.54
2022-08-11T10:19:38.360Z,27.81
2022-08-11T10:23:18.388Z,28.20
2022-08-11T10:27:00.728Z,28.65
2022-08-11T10:30:47.347Z,29.01
2022-08-11T10:34:10.414Z,28.96
2022-08-11T10:38:07.890Z,29.01
2022-08-11T10:42:03.357Z,28.99
2022-08-11T10:45:41.398Z,28.91
2022-08-11T10:49:02.359Z,28.85
2022-08-11T10:52:42.331Z,28.64
2022-08-11T10:56:22.414Z,28.20
2022-08-11T10:59:43.377Z,27.95
2022-08-11T11:03:22.646Z,27.82
2022-08-11T11:06:51.407Z,27.67
2022-08-11T11:10:16.382Z,27.36
2022-08-11T11:13:57.361Z,26.88
2022-08-11T11:17:20.396Z,26.61
2022-08-11T11:20:49.371Z,26.42
2022-08-11T11:24:41.444Z,26.37
2022-08-11T11:28:30.417Z,26.31
2022-08-11T11:32:07.390Z,26.30
2022-08-11T11:35:33.395Z,26.35
2022-08-11T11:38:55.387Z,26.43
2022-08-11T11:42:12.532Z,26.41
2022-08-11T11:45:29.397Z,26.46
2022-08-11T11:48:50.418Z,26.52
2022-08-11T11:52:13.442Z,26.56
2022-08-11T11:55:36.388Z,26.62
2022-08-11T11:59:16.399Z,26.67
2022-08-11T12:02:37.422Z,26.69
2022-08-11T12:06:00.437Z,26.79
2022-08-11T12:09:27.409Z,26.89
2022-08-11T12:13:06.413Z,27.08
2022-08-11T12:16:33.538Z,27.35
2022-08-11T12:19:57.350Z,27.53
2022-08-11T12:23:36.415Z,27.60
2022-08-11T12:27:17.851Z,27.64
2022-08-11T12:30:39.500Z,27.67
2022-08-11T12:34:02.420Z,27.61
2022-08-11T12:37:23.426Z,27.68
2022-08-11T12:41:17.972Z,27.77
2022-08-11T12:45:03.517Z,28.01
2022-08-11T12:48:59.372Z,29.97
2022-08-11T12:52:26.513Z,32.63
2022-08-11T12:56:07.764Z,34.26
2022-08-11T12:59:47.412Z,35.34
2022-08-11T13:03:29.454Z,35.98
2022-08-11T13:06:51.420Z,36.62
2022-08-11T13:10:17.124Z,36.83
2022-08-11T13:13:54.826Z,36.54
2022-08-11T13:17:43.952Z,37.51
2022-08-11T13:21:10.421Z,38.30
2022-08-11T13:24:35.535Z,38.57
2022-08-11T13:28:00.403Z,38.22
2022-08-11T13:31:28.070Z,38.30
2022-08-11T13:34:49.497Z,38.65
2022-08-11T13:38:28.387Z,38.53
2022-08-11T13:41:51.533Z,38.39
2022-08-11T13:45:05.617Z,38.03
2022-08-11T13:48:29.604Z,36.72
2022-08-11T13:51:52.534Z,37.20
2022-08-11T13:55:51.655Z,37.68
2022-08-11T13:59:02.627Z,37.63
2022-08-11T14:02:30.879Z,35.74
2022-08-11T14:06:03.511Z,35.29
2022-08-11T14:09:29.453Z,37.18
2022-08-11T14:13:16.968Z,38.39
2022-08-11T14:16:46.498Z,40.03
2022-08-11T14:20:38.753Z,41.02
2022-08-11T14:23:54.515Z,41.42
2022-08-11T14:28:30.610Z,41.28
2022-08-11T14:31:03.569Z,41.53
2022-08-11T14:34:27.527Z,41.17
2022-08-11T14:37:49.739Z,41.13
2022-08-11T14:41:29.559Z,41.04
2022-08-11T14:45:09.507Z,41.17
2022-08-11T14:48:30.532Z,41.85
2022-08-11T14:51:47.171Z,42.09
2022-08-11T14:55:27.624Z,41.95
2022-08-11T14:58:49.663Z,41.74
2022-08-11T15:02:28.646Z,39.90
2022-08-11T15:05:57.650Z,38.02
2022-08-11T15:09:19.540Z,38.96
2022-08-11T15:12:45.536Z,39.94
2022-08-11T15:16:24.504Z,40.67
2022-08-11T15:20:07.568Z,40.92
2022-08-11T15:23:48.531Z,40.44
2022-08-11T15:27:29.582Z,40.42
2022-08-11T15:31:11.469Z,40.59
2022-08-11T15:34:53.501Z,40.20
2022-08-11T15:38:16.598Z,39.78
2022-08-11T15:42:13.703Z,39.38
2022-08-11T15:45:56.625Z,38.64
2022-08-11T15:50:11.779Z,38.47
2022-08-11T15:53:22.617Z,38.56
2022-08-11T15:56:38.582Z,38.27
2022-08-11T16:00:18.518Z,38.52
2022-08-11T16:04:12.670Z,38.36
2022-08-11T16:07:39.109Z,37.62
2022-08-11T16:11:02.457Z,37.25
2022-08-11T16:14:46.546Z,36.31
2022-08-11T16:18:12.481Z,34.09
2022-08-11T16:21:36.665Z,32.23
2022-08-11T16:27:03.506Z,30.79
2022-08-11T16:28:41.517Z,29.62
2022-08-11T16:32:23.568Z,28.87
2022-08-11T16:36:05.490Z,28.22
2022-08-11T16:39:29.566Z,27.69
2022-08-11T16:43:10.880Z,27.29
2022-08-11T16:46:54.831Z,26.94
2022-08-11T16:50:16.512Z,26.66
2022-08-11T16:54:00.264Z,26.42
2022-08-11T16:57:44.530Z,26.12
2022-08-11T17:01:05.550Z,25.90
2022-08-11T17:05:02.729Z,25.64
2022-08-11T17:08:41.489Z,25.46
2022-08-11T17:12:30.494Z,25.24
2022-08-11T17:16:14.512Z,25.02
2022-08-11T17:20:40.712Z,24.79
2022-08-11T17:24:00.484Z,24.63
2022-08-11T17:27:26.502Z,24.46
2022-08-11T17:31:10.715Z,24.31
2022-08-11T17:34:59.538Z,24.12
2022-08-11T17:38:31.496Z,23.94
2022-08-11T17:42:12.717Z,23.85
2022-08-11T17:46:08.123Z,23.71
2022-08-11T17:49:31.475Z,23.58
2022-08-11T17:53:12.518Z,23.47
2022-08-11T17:56:53.494Z,23.38
2022-08-11T18:00:15.499Z,23.32
2022-08-11T18:03:41.528Z,23.27
2022-08-11T18:07:03.505Z,23.21
2022-08-11T18:10:42.516Z,23.16
2022-08-11T18:14:23.519Z,23.11
2022-08-11T18:18:03.575Z,23.05
2022-08-11T18:21:45.483Z,22.94
2022-08-11T18:25:46.520Z,22.89
2022-08-11T18:29:28.492Z,22.84
2022-08-11T18:33:45.151Z,22.77
2022-08-11T18:37:20.011Z,22.74
2022-08-11T18:41:01.532Z,22.66
2022-08-11T18:44:42.551Z,22.68
2022-08-11T18:48:33.217Z,22.58
2022-08-11T18:52:17.535Z,22.53
2022-08-11T18:55:56.531Z,22.44
2022-08-11T18:59:39.592Z,22.33
2022-08-11T19:03:20.533Z,22.27
2022-08-11T19:07:02.528Z,22.20
2022-08-11T19:10:42.496Z,22.10
2022-08-11T19:14:23.555Z,21.96
2022-08-11T19:18:06.597Z,21.81
2022-08-11T19:21:49.630Z,21.70
2022-08-11T19:25:29.515Z,21.62
2022-08-11T19:30:07.786Z,21.57
2022-08-11T19:33:12.544Z,21.64
2022-08-11T19:36:51.570Z,21.60
2022-08-11T19:40:35.560Z,21.60
2022-08-11T19:44:16.771Z,21.63
2022-08-11T19:48:08.203Z,21.59
2022-08-11T19:51:54.035Z,21.53
2022-08-11T19:55:34.542Z,21.42
2022-08-11T19:59:14.534Z,21.30
2022-08-11T20:02:54.541Z,21.16
2022-08-11T20:06:38.580Z,21.08
2022-08-11T20:10:20.614Z,20.98
2022-08-11T20:14:01.647Z,20.91
2022-08-11T20:17:42.555Z,20.80
2022-08-11T20:21:25.548Z,20.71
2022-08-11T20:25:10.571Z,20.66
2022-08-11T20:28:51.588Z,20.59
2022-08-11T20:32:31.564Z,20.49
2022-08-11T20:36:04.559Z,20.37
2022-08-11T20:39:46.611Z,20.30
2022-08-11T20:44:05.480Z,20.20
2022-08-11T20:47:26.585Z,20.14
2022-08-11T20:51:08.567Z,20.10
2022-08-11T20:54:49.619Z,20.08
2022-08-11T20:58:47.015Z,20.06
2022-08-11T21:02:30.655Z,20.03
2022-08-11T21:06:11.613Z,19.97
2022-08-11T21:10:00.949Z,19.88
2022-08-11T21:13:54.617Z,19.83
2022-08-11T21:17:35.585Z,19.73
2022-08-11T21:21:31.564Z,19.68
2022-08-11T21:25:28.577Z,19.59
2022-08-11T21:29:10.578Z,19.49
2022-08-11T21:32:51.660Z,19.49
2022-08-11T21:36:33.593Z,19.52
2022-08-11T21:40:17.133Z,19.51
2022-08-11T21:43:59.590Z,19.45
2022-08-11T21:47:42.961Z,19.36
2022-08-11T21:51:23.605Z,19.28
2022-08-11T21:55:03.570Z,19.25
2022-08-11T21:58:43.583Z,19.22
2022-08-11T22:02:23.590Z,19.21
2022-08-11T22:06:06.573Z,19.16
2022-08-11T22:09:45.652Z,19.12
2022-08-11T22:13:25.601Z,19.08
2022-08-11T22:16:57.648Z,19.01
2022-08-11T22:20:37.575Z,19.00
2022-08-11T22:24:18.598Z,19.03
2022-08-11T22:28:08.609Z,18.93
2022-08-11T22:31:50.594Z,18.86
2022-08-11T22:35:33.649Z,18.77
2022-08-11T22:39:13.658Z,18.74
2022-08-11T22:42:52.645Z,18.69
2022-08-11T22:46:32.613Z,18.67
2022-08-11T22:50:14.622Z,18.62
2022-08-11T22:53:59.085Z,18.57
2022-08-11T22:57:38.619Z,18.53
2022-08-11T23:01:17.741Z,18.48
2022-08-11T23:04:57.658Z,18.41
2022-08-11T23:08:37.581Z,18.40
2022-08-11T23:12:16.585Z,18.51
2022-08-11T23:15:56.642Z,18.58
2022-08-11T23:20:06.891Z,18.58
2022-08-11T23:23:37.636Z,18.55
2022-08-11T23:27:17.613Z,18.52
2022-08-11T23:30:56.593Z,18.55
2022-08-11T23:35:02.725Z,18.57
2022-08-11T23:38:35.627Z,18.58
2022-08-11T23:42:15.640Z,18.61
2022-08-11T23:45:55.621Z,18.68
2022-08-11T23:49:53.632Z,18.72
2022-08-11T23:53:33.610Z,18.61
2022-08-11T23:57:12.637Z,18.55
